sensor_id;sensor_type;location;lat;lon;timestamp;pressure;altitude;pressure_sealevel;temperature;humidity
6224;BME280;3145;42.726;23.342;2024-03-02T00:01:29;72611.25;;;-142.70;91.20
6224;BME280;3145;42.726;23.342;2024-03-02T00:03:56;72613.28;;;-142.70;91.12
6224;BME280;3145;42.726;23.342;2024-03-02T00:06:22;72617.31;;;-142.70;90.94
6224;BME280;3145;42.726;23.342;2024-03-02T00:08:49;72619.31;;;-142.70;91.00
6224;BME280;3145;42.726;23.342;2024-03-02T00:11:16;72621.34;;;-142.70;91.01
6224;BME280;3145;42.726;23.342;2024-03-02T00:13:45;72629.38;;;-142.70;91.33
6224;BME280;3145;42.726;23.342;2024-03-02T00:16:11;72625.38;;;-142.70;91.39
6224;BME280;3145;42.726;23.342;2024-03-02T00:18:40;72615.28;;;-142.70;90.84
6224;BME280;3145;42.726;23.342;2024-03-02T00:21:08;72625.38;;;-142.70;90.91
6224;BME280;3145;42.726;23.342;2024-03-02T00:23:37;72621.34;;;-142.70;91.60
6224;BME280;3145;42.726;23.342;2024-03-02T00:26:04;72639.47;;;-142.70;91.60
6224;BME280;3145;42.726;23.342;2024-03-02T00:28:33;72621.34;;;-142.70;92.15
6224;BME280;3145;42.726;23.342;2024-03-02T00:31:03;72623.34;;;-142.70;91.94
6224;BME280;3145;42.726;23.342;2024-03-02T00:33:32;72629.38;;;-142.70;92.45
6224;BME280;3145;42.726;23.342;2024-03-02T00:36:01;72621.34;;;-142.70;92.46
6224;BME280;3145;42.726;23.342;2024-03-02T00:38:29;72613.28;;;-142.70;92.17
6224;BME280;3145;42.726;23.342;2024-03-02T00:40:56;72601.19;;;-142.70;92.04
6224;BME280;3145;42.726;23.342;2024-03-02T00:43:42;72611.25;;;-142.70;91.55
6224;BME280;3145;42.726;23.342;2024-03-02T00:46:11;72615.28;;;-142.70;91.52
6224;BME280;3145;42.726;23.342;2024-03-02T00:48:40;72609.25;;;-142.70;92.03
6224;BME280;3145;42.726;23.342;2024-03-02T00:51:14;72613.28;;;-142.70;92.21
6224;BME280;3145;42.726;23.342;2024-03-02T00:53:41;72593.13;;;-142.70;91.77
6224;BME280;3145;42.726;23.342;2024-03-02T00:56:09;72589.09;;;-142.70;91.40
6224;BME280;3145;42.726;23.342;2024-03-02T00:58:37;72572.97;;;-142.70;91.33
6224;BME280;3145;42.726;23.342;2024-03-02T01:01:04;72577.00;;;-142.70;90.72
6224;BME280;3145;42.726;23.342;2024-03-02T01:03:31;72566.94;;;-142.70;90.46
6224;BME280;3145;42.726;23.342;2024-03-02T01:05:58;72562.91;;;-142.70;89.80
6224;BME280;3145;42.726;23.342;2024-03-02T01:08:26;72562.91;;;-142.70;89.61
6224;BME280;3145;42.726;23.342;2024-03-02T01:10:53;72577.00;;;-142.70;90.17
6224;BME280;3145;42.726;23.342;2024-03-02T01:13:21;72577.00;;;-142.70;90.24
6224;BME280;3145;42.726;23.342;2024-03-02T01:15:47;72577.00;;;-142.70;90.26
6224;BME280;3145;42.726;23.342;2024-03-02T01:18:14;72564.94;;;-142.70;90.09
6224;BME280;3145;42.726;23.342;2024-03-02T01:20:41;72568.97;;;-142.70;90.33
6224;BME280;3145;42.726;23.342;2024-03-02T01:23:08;72572.97;;;-142.70;90.46
6224;BME280;3145;42.726;23.342;2024-03-02T01:25:36;72570.97;;;-142.70;90.22
6224;BME280;3145;42.726;23.342;2024-03-02T01:28:04;72579.03;;;-142.70;90.45
6224;BME280;3145;42.726;23.342;2024-03-02T01:30:30;72556.88;;;-142.70;90.52
6224;BME280;3145;42.726;23.342;2024-03-02T01:32:57;72556.88;;;-142.70;90.44
6224;BME280;3145;42.726;23.342;2024-03-02T01:35:25;72564.94;;;-142.70;90.77
6224;BME280;3145;42.726;23.342;2024-03-02T01:37:52;72560.91;;;-142.70;90.44
6224;BME280;3145;42.726;23.342;2024-03-02T01:40:19;72556.88;;;-142.70;90.84
6224;BME280;3145;42.726;23.342;2024-03-02T01:42:47;72568.97;;;-142.70;91.35
6224;BME280;3145;42.726;23.342;2024-03-02T01:45:14;72560.91;;;-142.70;91.55
6224;BME280;3145;42.726;23.342;2024-03-02T01:47:41;72564.94;;;-142.70;91.53
6224;BME280;3145;42.726;23.342;2024-03-02T01:50:08;72566.94;;;-142.70;92.15
6224;BME280;3145;42.726;23.342;2024-03-02T01:52:37;72568.97;;;-142.70;92.35
6224;BME280;3145;42.726;23.342;2024-03-02T01:55:04;72562.91;;;-142.70;92.70
6224;BME280;3145;42.726;23.342;2024-03-02T01:57:32;72560.91;;;-142.70;93.06
6224;BME280;3145;42.726;23.342;2024-03-02T02:00:00;72564.94;;;-142.70;93.24
6224;BME280;3145;42.726;23.342;2024-03-02T02:02:28;72572.97;;;-142.70;93.90
6224;BME280;3145;42.726;23.342;2024-03-02T02:04:55;72581.03;;;-142.70;94.82
6224;BME280;3145;42.726;23.342;2024-03-02T02:07:22;72585.06;;;-142.70;95.43
6224;BME280;3145;42.726;23.342;2024-03-02T02:09:48;72591.13;;;-142.70;95.71
6224;BME280;3145;42.726;23.342;2024-03-02T02:12:15;72581.03;;;-142.70;95.94
6224;BME280;3145;42.726;23.342;2024-03-02T02:14:47;72591.13;;;-142.70;95.88
6224;BME280;3145;42.726;23.342;2024-03-02T02:17:15;72581.03;;;-142.70;96.17
6224;BME280;3145;42.726;23.342;2024-03-02T02:19:42;72572.97;;;-142.70;96.21
6224;BME280;3145;42.726;23.342;2024-03-02T02:22:10;72585.06;;;-142.70;96.29
6224;BME280;3145;42.726;23.342;2024-03-02T02:24:39;72577.00;;;-142.70;96.36
6224;BME280;3145;42.726;23.342;2024-03-02T02:27:06;72581.03;;;-142.70;96.20
6224;BME280;3145;42.726;23.342;2024-03-02T02:29:33;72577.00;;;-142.70;95.99
6224;BME280;3145;42.726;23.342;2024-03-02T02:32:00;72572.97;;;-142.70;96.49
6224;BME280;3145;42.726;23.342;2024-03-02T02:34:26;72579.03;;;-142.70;96.38
6224;BME280;3145;42.726;23.342;2024-03-02T02:36:53;72572.97;;;-142.70;96.31
6224;BME280;3145;42.726;23.342;2024-03-02T02:39:22;72568.97;;;-142.70;96.43
6224;BME280;3145;42.726;23.342;2024-03-02T02:41:48;72568.97;;;-142.70;96.28
6224;BME280;3145;42.726;23.342;2024-03-02T02:44:15;72572.97;;;-142.70;96.66
6224;BME280;3145;42.726;23.342;2024-03-02T02:46:42;72581.03;;;-142.70;96.35
6224;BME280;3145;42.726;23.342;2024-03-02T02:49:09;72577.00;;;-142.70;96.47
6224;BME280;3145;42.726;23.342;2024-03-02T02:51:35;72572.97;;;-142.70;96.63
6224;BME280;3145;42.726;23.342;2024-03-02T02:54:02;72581.03;;;-142.70;96.61
6224;BME280;3145;42.726;23.342;2024-03-02T02:56:30;72589.09;;;-142.70;96.51
6224;BME280;3145;42.726;23.342;2024-03-02T02:58:57;72591.13;;;-142.70;96.03
6224;BME280;3145;42.726;23.342;2024-03-02T03:01:24;72591.13;;;-142.70;96.93
6224;BME280;3145;42.726;23.342;2024-03-02T03:03:51;72597.16;;;-142.70;96.70
6224;BME280;3145;42.726;23.342;2024-03-02T03:06:17;72597.16;;;-142.70;97.12
6224;BME280;3145;42.726;23.342;2024-03-02T03:08:44;72597.16;;;-142.70;97.14
6224;BME280;3145;42.726;23.342;2024-03-02T03:11:11;72589.09;;;-142.70;97.24
6224;BME280;3145;42.726;23.342;2024-03-02T03:13:39;72589.09;;;-142.70;97.69
6224;BME280;3145;42.726;23.342;2024-03-02T03:16:06;72591.13;;;-142.70;98.08
6224;BME280;3145;42.726;23.342;2024-03-02T03:18:32;72581.03;;;-142.70;98.48
6224;BME280;3145;42.726;23.342;2024-03-02T03:20:59;72583.06;;;-142.70;97.87
6224;BME280;3145;42.726;23.342;2024-03-02T03:23:26;72568.97;;;-142.70;98.00
6224;BME280;3145;42.726;23.342;2024-03-02T03:25:52;72585.06;;;-142.70;97.99
6224;BME280;3145;42.726;23.342;2024-03-02T03:28:19;72589.09;;;-142.70;98.03
6224;BME280;3145;42.726;23.342;2024-03-02T03:30:47;72579.03;;;-142.70;97.75
6224;BME280;3145;42.726;23.342;2024-03-02T03:33:14;72581.03;;;-142.70;97.51
6224;BME280;3145;42.726;23.342;2024-03-02T03:35:41;72581.03;;;-142.70;97.51
6224;BME280;3145;42.726;23.342;2024-03-02T03:38:07;72577.00;;;-142.70;97.42
6224;BME280;3145;42.726;23.342;2024-03-02T03:40:34;72579.03;;;-142.70;97.29
6224;BME280;3145;42.726;23.342;2024-03-02T03:43:01;72585.06;;;-142.70;97.42
6224;BME280;3145;42.726;23.342;2024-03-02T03:45:27;72577.00;;;-142.70;97.39
6224;BME280;3145;42.726;23.342;2024-03-02T03:47:57;72575.00;;;-142.70;97.78
6224;BME280;3145;42.726;23.342;2024-03-02T03:50:23;72568.97;;;-142.70;97.92
6224;BME280;3145;42.726;23.342;2024-03-02T03:52:50;72564.94;;;-142.70;98.01
6224;BME280;3145;42.726;23.342;2024-03-02T03:55:17;72564.94;;;-142.70;97.42
6224;BME280;3145;42.726;23.342;2024-03-02T03:57:43;72560.91;;;-142.70;97.65
6224;BME280;3145;42.726;23.342;2024-03-02T04:00:11;72572.97;;;-142.70;97.20
6224;BME280;3145;42.726;23.342;2024-03-02T04:02:38;72570.97;;;-142.70;97.57
6224;BME280;3145;42.726;23.342;2024-03-02T04:05:07;72568.97;;;-142.70;97.78
6224;BME280;3145;42.726;23.342;2024-03-02T04:07:36;72564.94;;;-142.70;97.53
6224;BME280;3145;42.726;23.342;2024-03-02T04:10:09;72556.88;;;-142.70;97.59
6224;BME280;3145;42.726;23.342;2024-03-02T04:12:37;72556.88;;;-142.70;98.05
6224;BME280;3145;42.726;23.342;2024-03-02T04:15:05;72560.91;;;-142.70;98.21
6224;BME280;3145;42.726;23.342;2024-03-02T04:17:32;72564.94;;;-142.70;98.32
6224;BME280;3145;42.726;23.342;2024-03-02T04:20:01;72572.97;;;-142.70;99.04
6224;BME280;3145;42.726;23.342;2024-03-02T04:22:32;72572.97;;;-142.70;98.88
6224;BME280;3145;42.726;23.342;2024-03-02T04:24:59;72577.00;;;-142.70;99.55
6224;BME280;3145;42.726;23.342;2024-03-02T04:27:26;72579.03;;;-142.70;99.61
6224;BME280;3145;42.726;23.342;2024-03-02T04:29:53;72607.22;;;-142.70;100.00
6224;BME280;3145;42.726;23.342;2024-03-02T04:32:19;72593.13;;;-142.70;100.00
6224;BME280;3145;42.726;23.342;2024-03-02T04:34:46;72595.16;;;-142.70;100.00
6224;BME280;3145;42.726;23.342;2024-03-02T04:37:13;72587.09;;;-142.70;100.00
6224;BME280;3145;42.726;23.342;2024-03-02T04:39:41;72591.13;;;-142.70;100.00
6224;BME280;3145;42.726;23.342;2024-03-02T04:42:08;72595.16;;;-142.70;100.00
6224;BME280;3145;42.726;23.342;2024-03-02T04:44:34;72591.13;;;-142.70;100.00
6224;BME280;3145;42.726;23.342;2024-03-02T04:47:02;72593.13;;;-142.70;100.00
6224;BME280;3145;42.726;23.342;2024-03-02T04:49:29;72593.13;;;-142.70;100.00
6224;BME280;3145;42.726;23.342;2024-03-02T04:51:56;72601.19;;;-142.70;100.00
6224;BME280;3145;42.726;23.342;2024-03-02T04:54:23;72597.16;;;-142.70;100.00
6224;BME280;3145;42.726;23.342;2024-03-02T04:56:51;72595.16;;;-142.70;100.00
6224;BME280;3145;42.726;23.342;2024-03-02T04:59:18;72589.09;;;-142.70;100.00
6224;BME280;3145;42.726;23.342;2024-03-02T05:01:45;72589.09;;;-142.70;100.00
6224;BME280;3145;42.726;23.342;2024-03-02T05:04:12;72581.03;;;-142.70;100.00
6224;BME280;3145;42.726;23.342;2024-03-02T05:06:39;72581.03;;;-142.70;100.00
6224;BME280;3145;42.726;23.342;2024-03-02T05:09:06;72570.97;;;-142.70;100.00
6224;BME280;3145;42.726;23.342;2024-03-02T05:11:33;72548.81;;;-142.70;100.00
6224;BME280;3145;42.726;23.342;2024-03-02T05:14:25;72556.88;;;-142.70;100.00
6224;BME280;3145;42.726;23.342;2024-03-02T05:16:52;72568.97;;;-142.70;100.00
6224;BME280;3145;42.726;23.342;2024-03-02T05:19:19;72597.16;;;-142.70;100.00
6224;BME280;3145;42.726;23.342;2024-03-02T05:21:45;72585.06;;;-142.70;100.00
6224;BME280;3145;42.726;23.342;2024-03-02T05:24:12;72597.16;;;-142.70;100.00
6224;BME280;3145;42.726;23.342;2024-03-02T05:26:39;72589.09;;;-142.70;100.00
6224;BME280;3145;42.726;23.342;2024-03-02T05:29:05;72601.19;;;-142.70;100.00
6224;BME280;3145;42.726;23.342;2024-03-02T05:31:34;72611.25;;;-142.70;100.00
6224;BME280;3145;42.726;23.342;2024-03-02T05:34:00;72613.28;;;-142.70;100.00
6224;BME280;3145;42.726;23.342;2024-03-02T05:36:28;72605.22;;;-142.70;100.00
6224;BME280;3145;42.726;23.342;2024-03-02T05:38:54;72605.22;;;-142.70;100.00
6224;BME280;3145;42.726;23.342;2024-03-02T05:41:21;72607.22;;;-142.70;100.00
6224;BME280;3145;42.726;23.342;2024-03-02T05:43:48;72623.34;;;-142.70;100.00
6224;BME280;3145;42.726;23.342;2024-03-02T05:46:14;72613.28;;;-142.70;100.00
6224;BME280;3145;42.726;23.342;2024-03-02T05:48:42;72609.25;;;-142.70;100.00
6224;BME280;3145;42.726;23.342;2024-03-02T05:51:09;72601.19;;;-142.70;100.00
6224;BME280;3145;42.726;23.342;2024-03-02T05:53:36;72603.19;;;-142.70;100.00
6224;BME280;3145;42.726;23.342;2024-03-02T05:56:04;72617.31;;;-142.70;100.00
6224;BME280;3145;42.726;23.342;2024-03-02T05:58:31;72625.38;;;-142.70;100.00
6224;BME280;3145;42.726;23.342;2024-03-02T06:01:15;72629.38;;;-142.70;100.00
6224;BME280;3145;42.726;23.342;2024-03-02T06:03:43;72625.38;;;-142.70;100.00
6224;BME280;3145;42.726;23.342;2024-03-02T06:06:10;72617.31;;;-142.70;100.00
6224;BME280;3145;42.726;23.342;2024-03-02T06:08:38;72621.34;;;-142.70;100.00
6224;BME280;3145;42.726;23.342;2024-03-02T06:11:04;72617.31;;;-142.70;100.00
6224;BME280;3145;42.726;23.342;2024-03-02T06:13:31;72609.25;;;-142.70;100.00
6224;BME280;3145;42.726;23.342;2024-03-02T06:15:58;72617.31;;;-142.70;100.00
6224;BME280;3145;42.726;23.342;2024-03-02T06:18:24;72613.28;;;-142.70;100.00
6224;BME280;3145;42.726;23.342;2024-03-02T06:20:52;72609.25;;;-142.70;100.00
6224;BME280;3145;42.726;23.342;2024-03-02T06:23:19;72629.38;;;-142.70;100.00
6224;BME280;3145;42.726;23.342;2024-03-02T06:25:46;72621.34;;;-142.70;100.00
6224;BME280;3145;42.726;23.342;2024-03-02T06:28:12;72629.38;;;-142.70;100.00
6224;BME280;3145;42.726;23.342;2024-03-02T06:30:40;72633.41;;;-142.70;100.00
6224;BME280;3145;42.726;23.342;2024-03-02T06:33:07;72649.53;;;-142.70;100.00
6224;BME280;3145;42.726;23.342;2024-03-02T06:35:34;72637.44;;;-142.70;100.00
6224;BME280;3145;42.726;23.342;2024-03-02T06:38:02;72633.41;;;-142.70;100.00
6224;BME280;3145;42.726;23.342;2024-03-02T06:40:29;72629.38;;;-142.70;100.00
6224;BME280;3145;42.726;23.342;2024-03-02T06:42:55;72629.38;;;-142.70;100.00
6224;BME280;3145;42.726;23.342;2024-03-02T06:45:22;72635.44;;;-142.70;100.00
6224;BME280;3145;42.726;23.342;2024-03-02T06:47:49;72629.38;;;-142.70;100.00
6224;BME280;3145;42.726;23.342;2024-03-02T06:50:16;72629.38;;;-142.70;100.00
6224;BME280;3145;42.726;23.342;2024-03-02T06:52:42;72649.53;;;-142.70;100.00
6224;BME280;3145;42.726;23.342;2024-03-02T06:55:10;72645.50;;;-142.70;100.00
6224;BME280;3145;42.726;23.342;2024-03-02T06:57:37;72637.44;;;-142.70;100.00
6224;BME280;3145;42.726;23.342;2024-03-02T07:00:04;72635.44;;;-142.70;100.00
6224;BME280;3145;42.726;23.342;2024-03-02T07:02:34;72641.47;;;-142.70;100.00
6224;BME280;3145;42.726;23.342;2024-03-02T07:05:01;72649.53;;;-142.70;100.00
6224;BME280;3145;42.726;23.342;2024-03-02T07:07:28;72645.50;;;-142.70;100.00
6224;BME280;3145;42.726;23.342;2024-03-02T07:09:54;72641.47;;;-142.70;100.00
6224;BME280;3145;42.726;23.342;2024-03-02T07:12:22;72645.50;;;-142.70;100.00
6224;BME280;3145;42.726;23.342;2024-03-02T07:14:49;72633.41;;;-142.70;100.00
6224;BME280;3145;42.726;23.342;2024-03-02T07:17:36;72637.44;;;-142.70;100.00
6224;BME280;3145;42.726;23.342;2024-03-02T07:20:04;72649.53;;;-142.70;100.00
6224;BME280;3145;42.726;23.342;2024-03-02T07:22:31;72651.56;;;-142.70;100.00
6224;BME280;3145;42.726;23.342;2024-03-02T07:24:58;72643.50;;;-142.70;100.00
6224;BME280;3145;42.726;23.342;2024-03-02T07:27:26;72639.47;;;-142.70;100.00
6224;BME280;3145;42.726;23.342;2024-03-02T07:29:53;72643.50;;;-142.70;100.00
6224;BME280;3145;42.726;23.342;2024-03-02T07:32:20;72643.50;;;-142.70;100.00
6224;BME280;3145;42.726;23.342;2024-03-02T07:34:46;72637.44;;;-142.70;100.00
6224;BME280;3145;42.726;23.342;2024-03-02T07:37:13;72649.53;;;-142.70;100.00
6224;BME280;3145;42.726;23.342;2024-03-02T07:39:40;72653.56;;;-142.70;100.00
6224;BME280;3145;42.726;23.342;2024-03-02T07:42:07;72651.56;;;-142.70;100.00
6224;BME280;3145;42.726;23.342;2024-03-02T07:44:35;72649.53;;;-142.70;100.00
6224;BME280;3145;42.726;23.342;2024-03-02T07:47:01;72643.50;;;-142.70;100.00
6224;BME280;3145;42.726;23.342;2024-03-02T07:49:28;72643.50;;;-142.70;100.00
6224;BME280;3145;42.726;23.342;2024-03-02T07:51:55;72637.44;;;-142.70;100.00
6224;BME280;3145;42.726;23.342;2024-03-02T07:54:22;72637.44;;;-142.70;100.00
6224;BME280;3145;42.726;23.342;2024-03-02T07:56:48;72637.44;;;-142.70;100.00
6224;BME280;3145;42.726;23.342;2024-03-02T07:59:15;72635.44;;;-142.70;100.00
6224;BME280;3145;42.726;23.342;2024-03-02T08:01:43;72639.47;;;-142.70;100.00
6224;BME280;3145;42.726;23.342;2024-03-02T08:04:10;72645.50;;;-142.70;100.00
6224;BME280;3145;42.726;23.342;2024-03-02T08:06:37;72633.41;;;-142.70;100.00
6224;BME280;3145;42.726;23.342;2024-03-02T08:09:03;72645.50;;;-142.70;100.00
6224;BME280;3145;42.726;23.342;2024-03-02T08:11:35;72647.53;;;-142.70;100.00
6224;BME280;3145;42.726;23.342;2024-03-02T08:14:02;72641.47;;;-142.70;100.00
6224;BME280;3145;42.726;23.342;2024-03-02T08:16:29;72643.50;;;-142.70;100.00
6224;BME280;3145;42.726;23.342;2024-03-02T08:18:57;72653.56;;;-142.70;100.00
6224;BME280;3145;42.726;23.342;2024-03-02T08:21:24;72637.44;;;-142.70;100.00
6224;BME280;3145;42.726;23.342;2024-03-02T08:23:51;72641.47;;;-142.70;100.00
6224;BME280;3145;42.726;23.342;2024-03-02T08:26:20;72639.47;;;-142.70;100.00
6224;BME280;3145;42.726;23.342;2024-03-02T08:28:47;72641.47;;;-142.70;100.00
6224;BME280;3145;42.726;23.342;2024-03-02T08:31:14;72629.38;;;-142.70;100.00
6224;BME280;3145;42.726;23.342;2024-03-02T08:33:41;72633.41;;;-142.70;100.00
6224;BME280;3145;42.726;23.342;2024-03-02T08:36:09;72629.38;;;-142.70;100.00
6224;BME280;3145;42.726;23.342;2024-03-02T08:38:36;72629.38;;;-142.70;100.00
6224;BME280;3145;42.726;23.342;2024-03-02T08:41:03;72623.34;;;-142.70;100.00
6224;BME280;3145;42.726;23.342;2024-03-02T08:43:30;72623.34;;;-142.70;100.00
6224;BME280;3145;42.726;23.342;2024-03-02T08:45:57;72627.38;;;-142.70;100.00
6224;BME280;3145;42.726;23.342;2024-03-02T08:48:24;72617.31;;;-142.70;100.00
6224;BME280;3145;42.726;23.342;2024-03-02T08:50:50;72621.34;;;-142.70;100.00
6224;BME280;3145;42.726;23.342;2024-03-02T08:53:18;72605.22;;;-142.70;100.00
6224;BME280;3145;42.726;23.342;2024-03-02T08:55:45;72591.13;;;-142.70;100.00
6224;BME280;3145;42.726;23.342;2024-03-02T08:58:12;72597.16;;;-142.70;100.00
6224;BME280;3145;42.726;23.342;2024-03-02T09:00:39;72589.09;;;-142.70;100.00
6224;BME280;3145;42.726;23.342;2024-03-02T09:03:06;72585.06;;;-142.70;100.00
6224;BME280;3145;42.726;23.342;2024-03-02T09:05:33;72581.03;;;-142.70;100.00
6224;BME280;3145;42.726;23.342;2024-03-02T09:07:59;72585.06;;;-142.70;100.00
6224;BME280;3145;42.726;23.342;2024-03-02T09:10:27;72566.94;;;-142.70;100.00
6224;BME280;3145;42.726;23.342;2024-03-02T09:12:54;72560.91;;;-142.70;100.00
6224;BME280;3145;42.726;23.342;2024-03-02T09:15:21;72558.88;;;-142.70;100.00
6224;BME280;3145;42.726;23.342;2024-03-02T09:17:48;72560.91;;;-142.70;100.00
6224;BME280;3145;42.726;23.342;2024-03-02T09:20:14;72560.91;;;-142.70;100.00
6224;BME280;3145;42.726;23.342;2024-03-02T09:22:41;72562.91;;;-142.70;100.00
6224;BME280;3145;42.726;23.342;2024-03-02T09:25:08;72562.91;;;-142.70;100.00
6224;BME280;3145;42.726;23.342;2024-03-02T09:27:38;72577.00;;;-142.70;100.00
6224;BME280;3145;42.726;23.342;2024-03-02T09:30:09;72560.91;;;-142.70;100.00
6224;BME280;3145;42.726;23.342;2024-03-02T09:32:37;72560.91;;;-142.70;100.00
6224;BME280;3145;42.726;23.342;2024-03-02T09:35:04;72556.88;;;-142.70;100.00
6224;BME280;3145;42.726;23.342;2024-03-02T09:37:31;72568.97;;;-142.70;100.00
6224;BME280;3145;42.726;23.342;2024-03-02T09:39:57;72560.91;;;-142.70;100.00
6224;BME280;3145;42.726;23.342;2024-03-02T09:42:24;72552.84;;;-142.70;100.00
6224;BME280;3145;42.726;23.342;2024-03-02T09:44:53;72548.81;;;-142.70;100.00
6224;BME280;3145;42.726;23.342;2024-03-02T09:47:20;72556.88;;;-142.70;100.00
6224;BME280;3145;42.726;23.342;2024-03-02T09:49:47;72542.75;;;-142.70;100.00
6224;BME280;3145;42.726;23.342;2024-03-02T09:52:14;72568.97;;;-142.70;100.00
6224;BME280;3145;42.726;23.342;2024-03-02T09:54:41;72560.91;;;-142.70;100.00
6224;BME280;3145;42.726;23.342;2024-03-02T09:57:08;72560.91;;;-142.70;100.00
6224;BME280;3145;42.726;23.342;2024-03-02T09:59:36;72558.88;;;-142.70;100.00
6224;BME280;3145;42.726;23.342;2024-03-02T10:02:05;72560.91;;;-142.70;100.00
6224;BME280;3145;42.726;23.342;2024-03-02T10:04:32;72544.78;;;-142.70;100.00
6224;BME280;3145;42.726;23.342;2024-03-02T10:07:14;72540.75;;;-142.70;100.00
6224;BME280;3145;42.726;23.342;2024-03-02T10:09:40;72524.63;;;-142.70;100.00
6224;BME280;3145;42.726;23.342;2024-03-02T10:12:08;72528.66;;;-142.70;100.00
6224;BME280;3145;42.726;23.342;2024-03-02T10:14:35;72518.59;;;-142.70;100.00
6224;BME280;3145;42.726;23.342;2024-03-02T10:17:03;72508.53;;;-142.70;100.00
6224;BME280;3145;42.726;23.342;2024-03-02T10:19:31;72488.38;;;-142.70;100.00
6224;BME280;3145;42.726;23.342;2024-03-02T10:22:01;72468.22;;;-142.70;100.00
6224;BME280;3145;42.726;23.342;2024-03-02T10:24:35;72464.19;;;-142.70;100.00
6224;BME280;3145;42.726;23.342;2024-03-02T10:27:06;72466.22;;;-142.70;99.72
6224;BME280;3145;42.726;23.342;2024-03-02T10:29:36;72464.19;;;-142.70;98.52
6224;BME280;3145;42.726;23.342;2024-03-02T10:32:04;72456.16;;;-142.70;98.57
6224;BME280;3145;42.726;23.342;2024-03-02T10:34:33;72440.03;;;-142.70;98.57
6224;BME280;3145;42.726;23.342;2024-03-02T10:37:00;72448.09;;;-142.70;97.52
6224;BME280;3145;42.726;23.342;2024-03-02T10:39:28;72440.03;;;-142.70;96.76
6224;BME280;3145;42.726;23.342;2024-03-02T10:41:57;72448.09;;;-142.70;96.88
6224;BME280;3145;42.726;23.342;2024-03-02T10:44:25;72456.16;;;-142.70;95.34
6224;BME280;3145;42.726;23.342;2024-03-02T10:46:53;72446.06;;;-142.70;94.79
6224;BME280;3145;42.726;23.342;2024-03-02T10:49:23;72423.91;;;-142.70;94.85
6224;BME280;3145;42.726;23.342;2024-03-02T10:51:52;72427.94;;;-142.70;94.69
6224;BME280;3145;42.726;23.342;2024-03-02T10:54:18;72407.81;;;-142.70;94.10
6224;BME280;3145;42.726;23.342;2024-03-02T10:56:52;72415.84;;;-142.70;93.59
6224;BME280;3145;42.726;23.342;2024-03-02T10:59:24;72433.97;;;-142.70;93.25
6224;BME280;3145;42.726;23.342;2024-03-02T11:01:55;72415.84;;;-142.70;92.97
6224;BME280;3145;42.726;23.342;2024-03-02T11:04:24;72413.84;;;-142.70;92.59
6224;BME280;3145;42.726;23.342;2024-03-02T11:06:56;72407.81;;;-142.70;92.71
6224;BME280;3145;42.726;23.342;2024-03-02T11:09:27;72411.81;;;-142.70;92.59
6224;BME280;3145;42.726;23.342;2024-03-02T11:12:02;72409.81;;;-142.70;92.97
6224;BME280;3145;42.726;23.342;2024-03-02T11:14:30;72415.84;;;-142.70;94.32
6224;BME280;3145;42.726;23.342;2024-03-02T11:17:00;72427.94;;;-142.70;94.12
6224;BME280;3145;42.726;23.342;2024-03-02T11:19:29;72427.94;;;-142.70;94.79
6224;BME280;3145;42.726;23.342;2024-03-02T11:21:59;72438.00;;;-142.70;94.59
6224;BME280;3145;42.726;23.342;2024-03-02T11:24:30;72446.06;;;-142.70;94.54
6224;BME280;3145;42.726;23.342;2024-03-02T11:26:59;72456.16;;;-142.70;95.33
6224;BME280;3145;42.726;23.342;2024-03-02T11:29:44;72438.00;;;-142.70;95.82
6224;BME280;3145;42.726;23.342;2024-03-02T11:32:16;72448.09;;;-142.70;95.84
6224;BME280;3145;42.726;23.342;2024-03-02T11:34:45;72452.13;;;-142.70;96.01
6224;BME280;3145;42.726;23.342;2024-03-02T11:37:15;72444.06;;;-142.70;97.12
6224;BME280;3145;42.726;23.342;2024-03-02T11:39:43;72464.19;;;-142.70;96.06
6224;BME280;3145;42.726;23.342;2024-03-02T11:42:11;72456.16;;;-142.70;96.71
6224;BME280;3145;42.726;23.342;2024-03-02T11:44:40;72460.16;;;-142.70;96.50
6224;BME280;3145;42.726;23.342;2024-03-02T11:47:08;72446.06;;;-142.70;96.81
6224;BME280;3145;42.726;23.342;2024-03-02T11:49:37;72446.06;;;-142.70;96.25
6224;BME280;3145;42.726;23.342;2024-03-02T11:52:05;72431.97;;;-142.70;95.12
6224;BME280;3145;42.726;23.342;2024-03-02T11:54:34;72423.91;;;-142.70;93.42
6224;BME280;3145;42.726;23.342;2024-03-02T11:57:01;72433.97;;;-142.70;92.24
6224;BME280;3145;42.726;23.342;2024-03-02T11:59:28;72446.06;;;-142.70;93.59
6224;BME280;3145;42.726;23.342;2024-03-02T12:01:55;72444.06;;;-142.70;94.17
6224;BME280;3145;42.726;23.342;2024-03-02T12:04:22;72436.00;;;-142.70;93.41
6224;BME280;3145;42.726;23.342;2024-03-02T12:06:54;72427.94;;;-142.70;93.35
6224;BME280;3145;42.726;23.342;2024-03-02T12:09:21;72415.84;;;-142.70;93.11
6224;BME280;3145;42.726;23.342;2024-03-02T12:12:01;72431.97;;;-142.70;92.37
6224;BME280;3145;42.726;23.342;2024-03-02T12:14:28;72429.97;;;-142.70;92.36
6224;BME280;3145;42.726;23.342;2024-03-02T12:16:55;72407.81;;;-142.70;91.97
6224;BME280;3145;42.726;23.342;2024-03-02T12:19:24;72395.72;;;-142.70;91.48
6224;BME280;3145;42.726;23.342;2024-03-02T12:21:51;72395.72;;;-142.70;91.34
6224;BME280;3145;42.726;23.342;2024-03-02T12:24:18;72393.69;;;-142.70;90.89
6224;BME280;3145;42.726;23.342;2024-03-02T12:26:45;72387.66;;;-142.70;90.73
6224;BME280;3145;42.726;23.342;2024-03-02T12:29:15;72379.59;;;-142.70;89.90
6224;BME280;3145;42.726;23.342;2024-03-02T12:31:42;72403.78;;;-142.70;89.23
6224;BME280;3145;42.726;23.342;2024-03-02T12:34:11;72387.66;;;-142.70;88.52
6224;BME280;3145;42.726;23.342;2024-03-02T12:36:38;72375.56;;;-142.70;87.62
6224;BME280;3145;42.726;23.342;2024-03-02T12:39:07;72367.50;;;-142.70;87.19
6224;BME280;3145;42.726;23.342;2024-03-02T12:41:36;72359.44;;;-142.70;86.43
6224;BME280;3145;42.726;23.342;2024-03-02T12:44:02;72357.44;;;-142.70;86.49
6224;BME280;3145;42.726;23.342;2024-03-02T12:46:30;72375.56;;;-142.70;86.51
6224;BME280;3145;42.726;23.342;2024-03-02T12:48:57;72359.44;;;-142.70;87.50